Time;durP1;ratioP1;P1;durP2;ratioP2;P2;SDS_P1;SDS_P2;PMS_P1;PMS_P2;Temp;Humidity;BMP_temperature;BMP_pressure;BME280_temperature;BME280_humidity;BME280_pressure;Samples;Min_cycle;Max_cycle;Signal;HPM_P1;HPM_P2
2022/09/03 00:01:25;;;;;;;;;;;;;;;;;;10459638;28;20466;-58
2022/09/03 00:06:27;;;;;;;;;;;;;;;;;;10460173;28;19925;-59
2022/09/03 00:11:30;;;;;;;;;;;;;;;;;;10459980;28;19925;-59
2022/09/03 00:16:32;;;;;;;;;;;;;;;;;;10460864;28;19947;-59
2022/09/03 00:21:35;;;;;;;;;;;;;;;;;;10459919;28;19925;-58
2022/09/03 00:26:37;;;;;;;;;;;;;;;;;;10461104;28;19932;-58
2022/09/03 00:31:41;;;;;;;;;;;;;;;;;;10458800;28;19932;-58
2022/09/03 00:36:44;;;;;;;;;;;;;;;;;;10460721;28;19932;-59
2022/09/03 00:41:46;;;;;;;;;;;;;;;;;;10442805;28;19931;-58
2022/09/03 00:46:48;;;;;;;;;;;;;;;;;;10458453;28;20402;-59
2022/09/03 00:51:50;;;;;;;;;;;;;;;;;;10458614;28;19928;-58
2022/09/03 00:56:53;;;;;;;;;;;;;;;;;;10458837;28;20289;-58
2022/09/03 01:01:55;;;;;;;;;;;;;;;;;;10457916;28;20300;-59
2022/09/03 01:06:57;;;;;;;;;;;;;;;;;;10459469;28;19931;-58
2022/09/03 01:11:59;;;;;;;;;;;;;;;;;;10458506;28;19931;-58
2022/09/03 01:17:02;;;;;;;;;;;;;;;;;;10458498;28;19929;-58
2022/09/03 01:22:04;;;;;;;;;;;;;;;;;;10458256;28;19925;-58
2022/09/03 01:27:06;;;;;;;;;;;;;;;;;;10457357;28;20398;-58
2022/09/03 01:32:08;;;;;;;;;;;;;;;;;;10457214;28;19929;-58
2022/09/03 01:37:11;;;;;;;;;;;;;;;;;;10458388;28;19925;-58
2022/09/03 01:42:14;;;;;;;;;;;;;;;;;;10457717;28;19925;-58
2022/09/03 01:47:16;;;;;;;;;;;;;;;;;;10457423;28;19939;-58
2022/09/03 01:52:18;;;;;;;;;;;;;;;;;;10456962;28;19928;-58
2022/09/03 01:57:21;;;;;;;;;;;;;;;;;;10455521;28;19924;-58
2022/09/03 02:02:36;;;;;;;;;;;;;;;;;;10456116;28;20327;-58
2022/09/03 02:07:38;;;;;;;;;;;;;;;;;;10456773;28;20291;-59
2022/09/03 02:12:41;;;;;;;;;;;;;;;;;;10456230;28;19925;-58
2022/09/03 02:17:44;;;;;;;;;;;;;;;;;;10455577;28;19925;-58
2022/09/03 02:22:46;;;;;;;;;;;;;;;;;;10457331;28;19928;-58
2022/09/03 02:27:48;;;;;;;;;;;;;;;;;;10455093;28;19925;-58
2022/09/03 02:32:50;;;;;;;;;;;;;;;;;;10456314;28;19925;-58
2022/09/03 02:37:53;;;;;;;;;;;;;;;;;;10455566;28;19925;-58
2022/09/03 02:42:55;;;;;;;;;;;;;;;;;;10456160;28;19925;-58
2022/09/03 02:47:57;;;;;;;;;;;;;;;;;;10456656;28;19925;-58
2022/09/03 02:52:59;;;;;;;;;;;;;;;;;;10454311;28;20268;-58
2022/09/03 02:58:01;;;;;;;;;;;;;;;;;;10456420;28;19932;-58
2022/09/03 03:03:03;;;;;;;;;;;;;;;;;;10455996;28;19925;-58
2022/09/03 03:08:07;;;;;;;;;;;;;;;;;;10454227;28;20384;-58
2022/09/03 03:13:09;;;;;;;;;;;;;;;;;;10455326;28;19924;-58
2022/09/03 03:18:12;;;;;;;;;;;;;;;;;;10455359;28;19939;-58
2022/09/03 03:23:14;;;;;;;;;;;;;;;;;;10421591;28;19931;-59
2022/09/03 03:28:17;;;;;;;;;;;;;;;;;;10444677;28;20360;-59
2022/09/03 03:33:19;;;;;;;;;;;;;;;;;;10460824;28;20361;-59
2022/09/03 03:38:21;;;;;;;;;;;;;;;;;;10462989;28;19925;-59
2022/09/03 03:43:24;;;;;;;;;;;;;;;;;;10462878;28;19932;-59
2022/09/03 03:48:26;;;;;;;;;;;;;;;;;;10460817;28;19924;-59
2022/09/03 03:53:28;;;;;;;;;;;;;;;;;;10460729;28;19924;-59
2022/09/03 03:58:30;;;;;;;;;;;;;;;;;;10461534;28;19928;-59
2022/09/03 04:03:33;;;;;;;;;;;;;;;;;;10461324;28;19925;-59
2022/09/03 04:08:35;;;;;;;;;;;;;;;;;;10460510;28;19925;-59
2022/09/03 04:13:37;;;;;;;;;;;;;;;;;;10459786;28;19928;-59
2022/09/03 04:18:39;;;;;;;;;;;;;;;;;;10461436;28;19925;-59
2022/09/03 04:23:41;;;;;;;;;;;;;;;;;;10443579;28;19932;-59
2022/09/03 04:28:44;;;;;;;;;;;;;;;;;;10458919;28;20380;-59
2022/09/03 04:33:46;;;;;;;;;;;;;;;;;;10439755;28;19925;-59
2022/09/03 04:38:48;;;;;;;;;;;;;;;;;;10460646;28;19932;-59
2022/09/03 04:43:50;;;;;;;;;;;;;;;;;;10441591;28;19924;-59
2022/09/03 04:48:52;;;;;;;;;;;;;;;;;;10460263;28;19925;-59
2022/09/03 04:53:55;;;;;;;;;;;;;;;;;;10459737;28;19925;-59
2022/09/03 04:58:57;;;;;;;;;;;;;;;;;;10459826;28;19929;-59
2022/09/03 05:03:59;;;;;;;;;;;;;;;;;;10458961;28;19932;-59
2022/09/03 05:09:01;;;;;;;;;;;;;;;;;;10457174;28;20291;-59
2022/09/03 05:14:04;;;;;;;;;;;;;;;;;;10457923;28;19925;-59
2022/09/03 05:19:07;;;;;;;;;;;;;;;;;;10459110;28;20020;-59
2022/09/03 05:24:10;;;;;;;;;;;;;;;;;;10458291;28;20387;-59
2022/09/03 05:29:13;;;;;;;;;;;;;;;;;;10457664;28;19931;-59
2022/09/03 05:34:15;;;;;;;;;;;;;;;;;;10457014;28;19925;-59
2022/09/03 05:39:19;;;;;;;;;;;;;;;;;;10457734;28;20290;-59
2022/09/03 05:44:22;;;;;;;;;;;;;;;;;;10456396;28;19970;-59
2022/09/03 05:49:24;;;;;;;;;;;;;;;;;;10456817;28;20395;-59
2022/09/03 05:54:26;;;;;;;;;;;;;;;;;;10456147;28;19924;-59
2022/09/03 05:59:28;;;;;;;;;;;;;;;;;;10457439;28;19932;-60
2022/09/03 06:04:31;;;;;;;;;;;;;;;;;;10457004;28;20372;-59
2022/09/03 06:09:33;;;;;;;;;;;;;;;;;;10456441;28;19925;-59
2022/09/03 06:14:36;;;;;;;;;;;;;;;;;;10466529;22;19925;-65
2022/09/03 06:19:38;;;;;;;;;;;;;;;;;;10529932;28;19924;-65
2022/09/03 06:24:40;;;;;;;;;;;;;;;;;;10539796;28;20375;-66
2022/09/03 06:29:42;;;;;;;;;;;;;;;;;;10534458;28;19928;-65
2022/09/03 06:34:44;;;;;;;;;;;;;;;;;;10540326;28;19931;-65
2022/09/03 06:39:46;;;;;;;;;;;;;;;;;;10533132;28;19932;-65
2022/09/03 06:44:50;;;;;;;;;;;;;;;;;;10498733;28;19972;-65
2022/09/03 06:49:52;;;;;;;;;;;;;;;;;;10495769;28;19925;-65
2022/09/03 06:54:54;;;;;;;;;;;;;;;;;;10499099;28;20410;-65
2022/09/03 06:59:56;;;;;;;;;;;;;;;;;;10505940;28;19931;-65
2022/09/03 07:04:58;;;;;;;;;;;;;;;;;;10505742;28;19929;-65
2022/09/03 07:10:00;;;;;;;;;;;;;;;;;;10505475;28;19931;-65
2022/09/03 07:15:02;;;;;;;;;;;;;;;;;;10511432;28;19924;-65
2022/09/03 07:20:04;;;;;;;;;;;;;;;;;;10546879;28;19924;-65
2022/09/03 07:25:06;;;;;;;;;;;;;;;;;;10546941;28;19931;-65
2022/09/03 07:30:09;;;;;;;;;;;;;;;;;;10546745;28;19928;-66
2022/09/03 07:35:11;;;;;;;;;;;;;;;;;;10546444;28;19924;-65
2022/09/03 07:40:15;;;;;;;;;;;;;;;;;;10519747;28;19931;-66
2022/09/03 07:45:17;;;;;;;;;;;;;;;;;;10504267;28;19924;-66
2022/09/03 07:50:19;;;;;;;;;;;;;;;;;;10504074;28;19933;-65
2022/09/03 07:55:21;;;;;;;;;;;;;;;;;;10503857;28;19975;-65
2022/09/03 08:00:23;;;;;;;;;;;;;;;;;;10503565;28;19924;-65
2022/09/03 08:05:25;;;;;;;;;;;;;;;;;;10502873;28;19978;-65
2022/09/03 08:10:29;;;;;;;;;;;;;;;;;;10502303;28;20400;-66
2022/09/03 08:15:31;;;;;;;;;;;;;;;;;;10502912;28;19924;-65
2022/09/03 08:20:33;;;;;;;;;;;;;;;;;;10502931;28;19932;-64
2022/09/03 08:25:36;;;;;;;;;;;;;;;;;;10502766;28;19924;-64
2022/09/03 08:30:38;;;;;;;;;;;;;;;;;;10502562;28;19931;-63
2022/09/03 08:35:40;;;;;;;;;;;;;;;;;;10501911;28;19924;-64
2022/09/03 08:40:44;;;;;;;;;;;;;;;;;;10501391;28;20366;-64
2022/09/03 08:45:46;;;;;;;;;;;;;;;;;;10501810;28;19925;-64
2022/09/03 08:50:50;;;;;;;;;;;;;;;;;;10500876;28;19935;-64
2022/09/03 08:55:52;;;;;;;;;;;;;;;;;;10501462;28;19925;-64
2022/09/03 09:01:00;;;;;;;;;;;;;;;;;;10500597;28;19947;-64
2022/09/03 09:06:04;;;;;;;;;;;;;;;;;;10500366;28;19950;-64
2022/09/03 09:11:06;;;;;;;;;;;;;;;;;;10500847;28;19931;-65
2022/09/03 09:16:08;;;;;;;;;;;;;;;;;;10500293;28;19928;-64
2022/09/03 09:21:12;;;;;;;;;;;;;;;;;;10499491;28;19990;-64
2022/09/03 09:26:18;;;;;;;;;;;;;;;;;;10499404;28;19982;-64
2022/09/03 09:31:20;;;;;;;;;;;;;;;;;;10498559;28;20392;-64
2022/09/03 09:36:22;;;;;;;;;;;;;;;;;;10499404;28;19925;-64
2022/09/03 09:41:25;;;;;;;;;;;;;;;;;;10500027;28;19931;-64
2022/09/03 09:46:30;;;;;;;;;;;;;;;;;;10499504;28;19932;-64
2022/09/03 09:51:32;;;;;;;;;;;;;;;;;;10499397;28;19924;-65
2022/09/03 09:56:35;;;;;;;;;;;;;;;;;;10499235;28;19931;-64
2022/09/03 10:01:37;;;;;;;;;;;;;;;;;;10481582;28;19924;-65
2022/09/03 10:06:58;;;;;;;;;;;;;;;;;;10499194;28;19925;-65
2022/09/03 10:12:03;;;;;;;;;;;;;;;;;;10498274;28;20374;-65
2022/09/03 10:17:05;;;;;;;;;;;;;;;;;;10498656;28;19931;-64
2022/09/03 10:22:07;;;;;;;;;;;;;;;;;;10498786;28;19932;-65
2022/09/03 10:27:11;;;;;;;;;;;;;;;;;;10497521;28;19929;-65
2022/09/03 10:32:14;;;;;;;;;;;;;;;;;;10503380;28;19929;-65
2022/09/03 10:37:17;;;;;;;;;;;;;;;;;;10506931;28;19925;-64
2022/09/03 10:42:20;;;;;;;;;;;;;;;;;;10506721;28;19936;-65
2022/09/03 10:47:22;;;;;;;;;;;;;;;;;;10506566;28;19924;-64
2022/09/03 10:52:25;;;;;;;;;;;;;;;;;;10505376;28;19924;-64
2022/09/03 10:57:27;;;;;;;;;;;;;;;;;;10506116;28;19925;-64
2022/09/03 11:02:29;;;;;;;;;;;;;;;;;;10503275;28;19928;-64
2022/09/03 11:07:31;;;;;;;;;;;;;;;;;;10518438;28;19924;-64
2022/09/03 11:12:33;;;;;;;;;;;;;;;;;;10509169;28;19931;-64
2022/09/03 11:17:35;;;;;;;;;;;;;;;;;;10517495;28;19932;-64
2022/09/03 11:22:37;;;;;;;;;;;;;;;;;;10498890;28;19931;-64
2022/09/03 11:27:39;;;;;;;;;;;;;;;;;;10495812;28;20695;-64
2022/09/03 11:32:42;;;;;;;;;;;;;;;;;;10497188;28;20682;-64
2022/09/03 11:37:46;;;;;;;;;;;;;;;;;;10487256;28;21352;-64
2022/09/03 11:42:48;;;;;;;;;;;;;;;;;;10539912;28;20386;-64
2022/09/03 11:47:50;;;;;;;;;;;;;;;;;;10504361;28;19956;-64
2022/09/03 11:52:52;;;;;;;;;;;;;;;;;;10498149;28;19933;-64
2022/09/03 11:57:54;;;;;;;;;;;;;;;;;;10497713;28;20477;-64
2022/09/03 12:02:56;;;;;;;;;;;;;;;;;;10497574;28;19928;-64
2022/09/03 12:08:00;;;;;;;;;;;;;;;;;;10496925;28;19960;-65
2022/09/03 12:13:06;;;;;;;;;;;;;;;;;;10496281;28;19928;-65
2022/09/03 12:18:21;;;;;;;;;;;;;;;;;;10495915;28;20290;-65
2022/09/03 12:23:23;;;;;;;;;;;;;;;;;;10497015;28;19928;-65
2022/09/03 12:28:25;;;;;;;;;;;;;;;;;;10496448;28;20073;-65
2022/09/03 12:33:27;;;;;;;;;;;;;;;;;;10478134;28;19932;-65
2022/09/03 12:38:31;;;;;;;;;;;;;;;;;;10496206;28;20703;-64
2022/09/03 12:43:41;;;;;;;;;;;;;;;;;;10496073;28;19994;-64
2022/09/03 12:48:48;;;;;;;;;;;;;;;;;;10496062;28;20015;-65
2022/09/03 12:54:14;;;;;;;;;;;;;;;;;;10494707;28;20433;-64
2022/09/03 12:59:16;;;;;;;;;;;;;;;;;;10495267;28;19935;-65
2022/09/03 13:04:19;;;;;;;;;;;;;;;;;;10495050;28;20279;-64
2022/09/03 13:09:21;;;;;;;;;;;;;;;;;;10494358;28;19933;-65
2022/09/03 13:14:23;;;;;;;;;;;;;;;;;;10494380;28;19928;-64
2022/09/03 13:19:25;;;;;;;;;;;;;;;;;;10494448;28;19929;-64
2022/09/03 13:24:27;;;;;;;;;;;;;;;;;;10493584;28;19929;-65
2022/09/03 13:29:29;;;;;;;;;;;;;;;;;;10492849;28;20382;-65
2022/09/03 13:34:31;;;;;;;;;;;;;;;;;;10492647;28;20409;-65
2022/09/03 13:39:33;;;;;;;;;;;;;;;;;;10494049;28;19932;-65
2022/09/03 13:44:36;;;;;;;;;;;;;;;;;;10499120;28;19931;-65
2022/09/03 13:54:59;;;;;;;;;;;;;;;;;;10499433;28;19924;-65
2022/09/03 14:00:03;;;;;;;;;;;;;;;;;;10499298;28;19939;-65
2022/09/03 14:05:05;;;;;;;;;;;;;;;;;;10498302;28;19924;-65
2022/09/03 14:10:08;;;;;;;;;;;;;;;;;;10499130;28;19929;-65
2022/09/03 14:15:10;;;;;;;;;;;;;;;;;;10498169;28;20386;-65
2022/09/03 14:20:12;;;;;;;;;;;;;;;;;;10498883;28;19925;-64
2022/09/03 14:25:15;;;;;;;;;;;;;;;;;;10498074;28;19931;-64
2022/09/03 14:30:17;;;;;;;;;;;;;;;;;;10498081;28;20363;-64
2022/09/03 14:35:19;;;;;;;;;;;;;;;;;;10497860;28;19932;-63
2022/09/03 14:40:21;;;;;;;;;;;;;;;;;;10497617;28;19933;-64
2022/09/03 14:45:23;;;;;;;;;;;;;;;;;;10520247;28;19931;-63
2022/09/03 14:50:25;;;;;;;;;;;;;;;;;;10539700;28;19935;-64
2022/09/03 14:55:28;;;;;;;;;;;;;;;;;;10539764;28;19970;-63
2022/09/03 15:00:30;;;;;;;;;;;;;;;;;;10539200;28;19928;-63
2022/09/03 15:05:33;;;;;;;;;;;;;;;;;;10539308;28;19931;-63
2022/09/03 15:10:36;;;;;;;;;;;;;;;;;;10539883;28;19924;-64
2022/09/03 15:15:39;;;;;;;;;;;;;;;;;;10540110;28;19947;-63
2022/09/03 15:20:41;;;;;;;;;;;;;;;;;;10525911;28;19935;-63
2022/09/03 15:25:43;;;;;;;;;;;;;;;;;;10463685;28;19924;-63
2022/09/03 15:30:45;;;;;;;;;;;;;;;;;;10471353;28;19925;-63
2022/09/03 15:35:48;;;;;;;;;;;;;;;;;;10502914;28;19924;-64
2022/09/03 15:40:50;;;;;;;;;;;;;;;;;;10503188;28;20031;-63
2022/09/03 15:45:56;;;;;;;;;;;;;;;;;;10503737;28;19948;-63
2022/09/03 15:50:58;;;;;;;;;;;;;;;;;;10504233;28;19925;-63
2022/09/03 15:56:00;;;;;;;;;;;;;;;;;;10503282;28;20439;-63
2022/09/03 16:01:03;;;;;;;;;;;;;;;;;;10485405;28;20314;-64
2022/09/03 16:06:05;;;;;;;;;;;;;;;;;;10503554;28;19928;-64
2022/09/03 16:11:07;;;;;;;;;;;;;;;;;;10503700;28;19931;-63
2022/09/03 16:16:09;;;;;;;;;;;;;;;;;;10502694;28;19924;-63
2022/09/03 16:21:12;;;;;;;;;;;;;;;;;;10502958;28;19932;-64
2022/09/03 16:26:14;;;;;;;;;;;;;;;;;;10506919;28;19931;-64
2022/09/03 16:31:16;;;;;;;;;;;;;;;;;;10503028;28;19925;-64
2022/09/03 16:36:18;;;;;;;;;;;;;;;;;;10525079;28;20062;-63
2022/09/03 16:41:20;;;;;;;;;;;;;;;;;;10481648;28;19931;-63
2022/09/03 16:46:23;;;;;;;;;;;;;;;;;;10499672;28;19929;-64
2022/09/03 16:51:25;;;;;;;;;;;;;;;;;;10483283;28;20397;-63
2022/09/03 16:56:28;;;;;;;;;;;;;;;;;;10500740;28;20283;-63
2022/09/03 17:01:30;;;;;;;;;;;;;;;;;;10500080;28;20367;-64
2022/09/03 17:06:33;;;;;;;;;;;;;;;;;;10500401;28;20357;-64
2022/09/03 17:11:35;;;;;;;;;;;;;;;;;;10498549;28;20431;-64
2022/09/03 17:16:37;;;;;;;;;;;;;;;;;;10496200;28;19928;-64
2022/09/03 17:21:44;;;;;;;;;;;;;;;;;;10518598;28;20405;-64
2022/09/03 17:26:46;;;;;;;;;;;;;;;;;;10541939;28;19972;-64
2022/09/03 17:31:50;;;;;;;;;;;;;;;;;;10541378;28;20371;-64
2022/09/03 17:36:52;;;;;;;;;;;;;;;;;;10539477;28;20352;-65
2022/09/03 17:41:54;;;;;;;;;;;;;;;;;;10541155;28;19931;-64
2022/09/03 17:46:56;;;;;;;;;;;;;;;;;;10541561;28;19924;-64
2022/09/03 17:51:59;;;;;;;;;;;;;;;;;;10534459;28;19924;-64
2022/09/03 17:57:01;;;;;;;;;;;;;;;;;;10539659;28;19934;-65
2022/09/03 18:02:03;;;;;;;;;;;;;;;;;;10522541;28;19930;-65
2022/09/03 18:07:05;;;;;;;;;;;;;;;;;;10520764;28;19963;-65
2022/09/03 18:12:07;;;;;;;;;;;;;;;;;;10499082;28;19938;-63
2022/09/03 18:17:09;;;;;;;;;;;;;;;;;;10496921;28;19932;-63
2022/09/03 20:14:45;;;;;;;;;;;;;;;;;;10462145;28;19931;-64
2022/09/03 20:19:48;;;;;;;;;;;;;;;;;;10461727;28;19935;-63
2022/09/03 20:24:54;;;;;;;;;;;;;;;;;;10461006;28;19934;-64
2022/09/03 20:29:56;;;;;;;;;;;;;;;;;;10460488;28;19932;-63
2022/09/03 20:34:59;;;;;;;;;;;;;;;;;;10443382;28;19940;-64
2022/09/03 20:40:01;;;;;;;;;;;;;;;;;;10460915;28;19931;-64
2022/09/03 20:45:05;;;;;;;;;;;;;;;;;;10459088;28;19925;-64
2022/09/03 20:50:08;;;;;;;;;;;;;;;;;;10459783;28;19928;-64
2022/09/03 20:55:11;;;;;;;;;;;;;;;;;;10459509;28;19924;-63
2022/09/03 21:00:13;;;;;;;;;;;;;;;;;;10460127;28;19925;-64
2022/09/03 21:05:16;;;;;;;;;;;;;;;;;;10457614;28;19924;-64
2022/09/03 21:10:18;;;;;;;;;;;;;;;;;;10457838;28;19925;-64
2022/09/03 21:15:21;;;;;;;;;;;;;;;;;;10453663;28;19924;-64
2022/09/03 21:20:47;;;;;;;;;;;;;;;;;;10460101;28;19959;-64
2022/09/03 21:25:49;;;;;;;;;;;;;;;;;;10459123;28;19952;-64
2022/09/03 21:30:51;;;;;;;;;;;;;;;;;;10456098;28;19932;-63
2022/09/03 21:35:53;;;;;;;;;;;;;;;;;;10459183;28;19932;-64
2022/09/03 21:40:55;;;;;;;;;;;;;;;;;;10458133;28;19932;-64
2022/09/03 21:45:58;;;;;;;;;;;;;;;;;;10457752;28;19935;-64
2022/09/03 21:51:00;;;;;;;;;;;;;;;;;;10456567;28;19978;-63
2022/09/03 21:56:02;;;;;;;;;;;;;;;;;;10456717;28;20283;-64
2022/09/03 22:01:05;;;;;;;;;;;;;;;;;;10457272;28;19925;-64
2022/09/03 22:06:07;;;;;;;;;;;;;;;;;;10456290;28;20011;-64
2022/09/03 22:11:09;;;;;;;;;;;;;;;;;;10457659;28;19931;-64
2022/09/03 22:16:12;;;;;;;;;;;;;;;;;;10455913;28;20391;-64
2022/09/03 22:21:14;;;;;;;;;;;;;;;;;;10457354;28;19925;-64
2022/09/03 22:26:16;;;;;;;;;;;;;;;;;;10454735;28;19925;-59
2022/09/03 22:31:18;;;;;;;;;;;;;;;;;;10456631;28;20279;-59
2022/09/03 22:36:21;;;;;;;;;;;;;;;;;;10456355;28;20394;-59
2022/09/03 22:41:23;;;;;;;;;;;;;;;;;;10455064;28;19925;-59
2022/09/03 22:46:25;;;;;;;;;;;;;;;;;;10454810;28;19925;-59
2022/09/03 22:51:27;;;;;;;;;;;;;;;;;;10455719;28;19928;-60
2022/09/03 22:56:29;;;;;;;;;;;;;;;;;;10456695;28;19932;-64
2022/09/03 23:01:33;;;;;;;;;;;;;;;;;;10455786;28;19932;-64
2022/09/03 23:06:37;;;;;;;;;;;;;;;;;;10454157;28;19924;-64
2022/09/03 23:11:41;;;;;;;;;;;;;;;;;;10455785;28;20368;-64
2022/09/03 23:16:43;;;;;;;;;;;;;;;;;;10455617;28;19995;-64
2022/09/03 23:21:45;;;;;;;;;;;;;;;;;;10455060;28;20421;-64
2022/09/03 23:26:48;;;;;;;;;;;;;;;;;;10454413;28;19929;-65
2022/09/03 23:31:51;;;;;;;;;;;;;;;;;;10453033;28;20288;-64
2022/09/03 23:36:54;;;;;;;;;;;;;;;;;;10457525;28;20003;-64
2022/09/03 23:42:16;;;;;;;;;;;;;;;;;;10463435;28;19975;-64
2022/09/03 23:47:18;;;;;;;;;;;;;;;;;;10460700;28;20406;-64
2022/09/03 23:52:20;;;;;;;;;;;;;;;;;;10461882;28;19925;-64
2022/09/03 23:57:23;;;;;;;;;;;;;;;;;;10462971;28;19924;-59
